KGRK/GRK METAR and TAF weather

Enter ICAO airport designator
Station Type Date Time Source
KGRK METAR 2024/02/26 16:55 UTC NOAA

KGRK 261655Z AUTO 20007KT 10SM CLR 27/15 A2994 RMK AO2 SLP130 T02660153


Station Type Date Time Source
KGRK Decoded METAR 2024/02/26 16:55 UTC NOAA

Fort Hood, Robert Gray AAF Ft Hood, TX, United States (KGRK) 31-04N 097-49W
Feb 26, 2024 - 11:55 AM EST / 2024.02.26 1655 UTC
Wind: from the SSW (200 degrees) at 8 MPH (7 KT):0
Visibility: 10 mile(s):0
Sky conditions: clear
Temperature: 79.9 F (26.6 C)
Dew Point: 59.5 F (15.3 C)
Relative Humidity: 49%
Pressure (altimeter): 29.94 in. Hg (1013 hPa)
ob: KGRK 261655Z AUTO 20007KT 10SM CLR 27/15 A2994 RMK AO2 SLP130 T02660153
cycle: 17

Station Type Date Time Source
KGRK TAF 2024/02/26 16:16 UTC NOAA